createdAt,value
2019-03-17T00:01:57.223Z,1.17
2019-03-17T00:05:58.355Z,1.20
2019-03-17T00:10:02.818Z,1.23
2019-03-17T00:14:06.833Z,1.30
2019-03-17T00:18:10.808Z,1.30
2019-03-17T00:22:16.008Z,1.10
2019-03-17T00:26:19.939Z,1.30
2019-03-17T00:30:23.944Z,1.20
2019-03-17T00:34:28.058Z,1.00
2019-03-17T00:38:32.505Z,1.33
2019-03-17T00:42:36.640Z,1.13
2019-03-17T00:46:40.747Z,1.00
2019-03-17T00:50:44.685Z,1.20
2019-03-17T00:54:48.766Z,1.20
2019-03-17T00:58:52.833Z,1.20
2019-03-17T01:02:56.714Z,1.20
2019-03-17T01:07:00.735Z,1.00
2019-03-17T01:11:04.704Z,1.30
2019-03-17T01:15:08.950Z,1.17
2019-03-17T01:19:12.863Z,1.20
2019-03-17T01:23:16.966Z,1.27
2019-03-17T01:27:20.964Z,1.07
2019-03-17T01:31:24.939Z,1.10
2019-03-17T01:35:29.017Z,1.13
2019-03-17T01:39:33.118Z,1.10
2019-03-17T01:43:37.207Z,1.13
2019-03-17T01:47:41.236Z,1.20
2019-03-17T01:51:45.324Z,1.20
2019-03-17T01:55:49.442Z,1.10
2019-03-17T01:59:54.482Z,1.50
2019-03-17T02:03:58.566Z,1.33
2019-03-17T02:08:04.326Z,1.23
2019-03-17T02:12:08.362Z,1.20
2019-03-17T02:16:12.367Z,1.10
2019-03-17T02:20:16.555Z,1.17
2019-03-17T02:24:20.577Z,1.43
2019-03-17T02:28:24.567Z,1.23
2019-03-17T02:32:28.522Z,1.50
2019-03-17T02:36:32.472Z,1.20
2019-03-17T02:40:36.456Z,1.20
2019-03-17T02:44:40.471Z,1.20
2019-03-17T02:48:45.415Z,1.40
2019-03-17T02:52:49.463Z,1.30
2019-03-17T02:56:53.355Z,1.70
2019-03-17T03:00:57.362Z,1.40
2019-03-17T03:05:01.368Z,1.47
2019-03-17T03:09:06.244Z,1.30
2019-03-17T03:13:10.321Z,1.33
2019-03-17T03:17:14.364Z,1.10
2019-03-17T03:21:18.366Z,1.47
2019-03-17T03:25:22.315Z,1.87
2019-03-17T03:29:27.476Z,1.50
2019-03-17T03:33:31.645Z,1.37
2019-03-17T03:37:35.613Z,1.40
2019-03-17T03:41:39.581Z,1.20
2019-03-17T03:45:43.784Z,1.50
2019-03-17T03:49:47.707Z,1.30
2019-03-17T03:53:51.679Z,1.27
2019-03-17T03:57:55.544Z,1.43
2019-03-17T04:01:59.617Z,1.20
2019-03-17T04:06:03.669Z,1.97
2019-03-17T04:10:07.846Z,1.50
2019-03-17T04:14:13.763Z,1.10
2019-03-17T04:18:17.767Z,1.77
2019-03-17T04:22:21.820Z,1.50
2019-03-17T04:26:25.703Z,1.50
2019-03-17T04:30:29.689Z,1.47
2019-03-17T04:34:33.571Z,1.43
2019-03-17T04:38:37.576Z,1.30
2019-03-17T04:42:41.623Z,1.70
2019-03-17T04:46:45.490Z,1.60
2019-03-17T04:50:49.624Z,1.30
2019-03-17T04:54:53.731Z,1.23
2019-03-17T04:58:57.620Z,1.47
2019-03-17T05:03:01.637Z,1.60
2019-03-17T05:07:05.621Z,1.30
2019-03-17T05:11:09.602Z,1.40
2019-03-17T05:15:13.604Z,1.53
2019-03-17T05:19:17.532Z,1.47
2019-03-17T05:23:21.569Z,1.40
2019-03-17T05:27:25.577Z,1.53
2019-03-17T05:31:29.459Z,1.23
2019-03-17T05:35:33.444Z,1.40
2019-03-17T05:39:37.553Z,1.60
2019-03-17T05:43:41.551Z,1.50
2019-03-17T05:47:45.559Z,1.60
2019-03-17T05:51:49.726Z,1.40
2019-03-17T05:55:53.619Z,1.27
2019-03-17T05:59:57.594Z,1.33
2019-03-17T06:04:01.675Z,1.20
2019-03-17T06:08:05.565Z,1.63
2019-03-17T06:12:09.571Z,1.20
2019-03-17T06:16:13.624Z,1.37
2019-03-17T06:20:17.692Z,1.50
2019-03-17T06:24:21.725Z,1.40
2019-03-17T06:28:25.906Z,1.40
2019-03-17T06:32:29.907Z,1.30
2019-03-17T06:36:33.949Z,1.10
2019-03-17T06:40:38.073Z,1.30
2019-03-17T06:44:42.202Z,1.00
2019-03-17T06:48:47.509Z,0.97
2019-03-17T06:52:53.505Z,0.97
2019-03-17T06:56:57.168Z,0.90
2019-03-17T07:01:01.103Z,0.90
2019-03-17T07:05:05.228Z,0.80
2019-03-17T07:09:10.466Z,0.90
2019-03-17T07:13:14.574Z,0.80
2019-03-17T07:17:19.483Z,0.77
2019-03-17T07:21:24.629Z,0.70
2019-03-17T07:25:28.639Z,0.80
2019-03-17T07:29:33.776Z,0.80
2019-03-17T07:33:37.811Z,0.80
2019-03-17T07:37:41.975Z,0.63
2019-03-17T07:41:45.963Z,0.67
2019-03-17T07:45:51.420Z,0.60
2019-03-17T07:49:55.523Z,0.60
2019-03-17T07:53:59.617Z,0.57
2019-03-17T07:58:03.533Z,0.60
2019-03-17T08:02:07.719Z,0.70
2019-03-17T08:06:11.712Z,0.50
2019-03-17T08:10:15.828Z,0.50
2019-03-17T08:14:19.842Z,0.50
2019-03-17T08:18:23.967Z,0.50
2019-03-17T08:22:29.041Z,0.57
2019-03-17T08:26:33.112Z,0.60
2019-03-17T08:30:37.110Z,0.50
2019-03-17T08:34:41.172Z,0.40
2019-03-17T08:38:45.137Z,0.40
2019-03-17T08:42:49.171Z,0.40
2019-03-17T08:46:53.215Z,0.50
2019-03-17T08:50:57.248Z,1.70
2019-03-17T08:55:02.585Z,2.33
2019-03-17T08:59:07.477Z,2.23
2019-03-17T09:03:11.480Z,1.57
2019-03-17T09:07:15.472Z,3.93
2019-03-17T09:11:19.503Z,1.73
2019-03-17T09:15:23.516Z,1.30
2019-03-17T09:19:27.524Z,1.20
2019-03-17T09:23:31.676Z,1.00
2019-03-17T09:27:35.863Z,1.00
2019-03-17T09:31:39.877Z,1.00
2019-03-17T09:35:43.813Z,1.10
2019-03-17T09:39:47.897Z,1.20
2019-03-17T09:43:52.837Z,0.80
2019-03-17T09:47:56.826Z,0.60
2019-03-17T09:52:00.987Z,1.83
2019-03-17T09:56:05.009Z,1.73
2019-03-17T10:00:09.889Z,1.40
2019-03-17T10:04:13.891Z,1.27
2019-03-17T10:08:17.790Z,1.23
2019-03-17T10:12:21.947Z,0.87
2019-03-17T10:16:26.055Z,0.80
2019-03-17T10:20:30.158Z,1.10
2019-03-17T10:24:34.198Z,0.70
2019-03-17T10:28:38.757Z,0.97
2019-03-17T10:32:42.832Z,1.03
2019-03-17T10:36:46.850Z,0.90
2019-03-17T10:40:51.008Z,0.67
2019-03-17T10:44:55.130Z,0.53
2019-03-17T10:48:59.612Z,0.50
2019-03-17T10:53:03.624Z,0.50
2019-03-17T10:57:07.683Z,0.60
2019-03-17T11:01:11.687Z,0.70
2019-03-17T11:05:18.275Z,0.60
2019-03-17T11:09:25.553Z,0.50
2019-03-17T11:13:29.003Z,0.77
2019-03-17T11:17:32.970Z,1.10
2019-03-17T11:21:37.016Z,1.00
2019-03-17T11:25:41.037Z,0.70
2019-03-17T11:29:45.190Z,7.57
2019-03-17T11:33:49.117Z,5.30
2019-03-17T11:37:55.683Z,1.67
2019-03-17T11:41:59.648Z,5.70
2019-03-17T11:46:03.760Z,3.37
2019-03-17T11:50:08.364Z,3.73
2019-03-17T11:54:12.474Z,1.80
2019-03-17T11:58:16.632Z,2.50
2019-03-17T12:02:26.528Z,0.93
2019-03-17T12:06:26.344Z,0.73
2019-03-17T12:10:30.331Z,0.90
2019-03-17T12:14:34.366Z,0.70
2019-03-17T12:18:38.483Z,1.93
2019-03-17T12:22:42.494Z,2.47
2019-03-17T12:26:46.505Z,1.67
2019-03-17T12:30:50.566Z,2.23
2019-03-17T12:34:54.536Z,3.93
2019-03-17T12:38:58.449Z,2.50
2019-03-17T12:43:02.728Z,1.70
2019-03-17T12:47:06.864Z,3.33
2019-03-17T12:51:10.891Z,2.93
2019-03-17T12:55:15.860Z,3.23
2019-03-17T12:59:20.006Z,3.00
2019-03-17T13:03:24.079Z,1.57
2019-03-17T13:07:28.147Z,0.90
2019-03-17T13:11:32.147Z,0.60
2019-03-17T13:15:36.387Z,0.50
2019-03-17T13:19:41.478Z,0.50
2019-03-17T13:23:45.512Z,0.60
2019-03-17T13:27:49.406Z,0.40
2019-03-17T13:31:53.387Z,0.80
2019-03-17T13:35:57.500Z,0.50
2019-03-17T13:40:01.629Z,0.50
2019-03-17T13:44:05.776Z,0.50
2019-03-17T13:48:09.987Z,0.40
2019-03-17T13:52:14.055Z,0.40
2019-03-17T13:56:18.149Z,0.50
2019-03-17T14:00:22.175Z,0.40
2019-03-17T14:04:26.269Z,0.50
2019-03-17T14:08:30.444Z,0.60
2019-03-17T14:12:34.502Z,0.70
2019-03-17T14:16:38.544Z,1.30
2019-03-17T14:20:42.549Z,0.63
2019-03-17T14:24:46.751Z,0.83
2019-03-17T14:28:50.795Z,0.70
2019-03-17T14:32:54.851Z,0.63
2019-03-17T14:36:58.844Z,0.50
2019-03-17T14:41:02.892Z,0.50
2019-03-17T14:45:07.007Z,0.40
2019-03-17T14:49:11.224Z,0.50
2019-03-17T14:53:15.328Z,0.40
2019-03-17T14:57:19.323Z,0.50
2019-03-17T15:01:23.282Z,0.50
2019-03-17T15:05:27.720Z,0.40
2019-03-17T15:09:32.064Z,0.40
2019-03-17T15:13:36.131Z,0.60
2019-03-17T15:17:40.263Z,0.43
2019-03-17T15:21:44.219Z,0.40
2019-03-17T15:25:48.265Z,0.50
2019-03-17T15:29:52.228Z,0.50
2019-03-17T15:33:56.607Z,0.50
2019-03-17T15:38:00.704Z,1.00
2019-03-17T15:42:04.683Z,0.70
2019-03-17T15:46:08.681Z,0.80
2019-03-17T15:50:13.612Z,0.90
2019-03-17T15:54:17.765Z,0.60
2019-03-17T15:58:21.965Z,0.50
2019-03-17T16:02:25.872Z,0.70
2019-03-17T16:06:30.010Z,0.60
2019-03-17T16:10:34.076Z,0.50
2019-03-17T16:14:38.060Z,0.67
2019-03-17T16:18:42.240Z,0.80
2019-03-17T16:22:46.272Z,0.70
2019-03-17T16:26:50.262Z,0.43
2019-03-17T16:30:54.236Z,0.50
2019-03-17T16:34:58.235Z,0.50
2019-03-17T16:39:02.359Z,0.50
2019-03-17T16:43:06.502Z,0.40
2019-03-17T16:47:10.570Z,0.50
2019-03-17T16:51:14.581Z,0.40
2019-03-17T16:55:18.695Z,0.50
2019-03-17T16:59:22.859Z,1.17
2019-03-17T17:03:26.951Z,1.50
2019-03-17T17:07:31.033Z,0.90
2019-03-17T17:11:35.366Z,0.73
2019-03-17T17:15:39.527Z,0.67
2019-03-17T17:19:45.459Z,0.57
2019-03-17T17:23:49.465Z,0.60
2019-03-17T17:27:53.396Z,1.00
2019-03-17T17:31:57.504Z,0.80
2019-03-17T17:36:02.674Z,1.20
2019-03-17T17:40:07.260Z,1.07
2019-03-17T17:44:13.003Z,1.60
2019-03-17T17:48:17.133Z,1.00
2019-03-17T17:52:21.261Z,1.10
2019-03-17T17:56:25.356Z,0.70
2019-03-17T18:00:31.967Z,0.70
2019-03-17T18:04:35.991Z,0.70
2019-03-17T18:08:42.713Z,0.53
2019-03-17T18:12:47.665Z,0.60
2019-03-17T18:16:54.662Z,0.73
2019-03-17T18:21:00.414Z,0.70
2019-03-17T18:25:04.765Z,1.60
2019-03-17T18:29:08.960Z,1.00
2019-03-17T18:33:13.116Z,1.67
2019-03-17T18:37:17.181Z,4.00
2019-03-17T18:41:23.431Z,4.13
2019-03-17T18:45:29.045Z,2.47
2019-03-17T18:49:33.491Z,1.30
2019-03-17T18:53:37.607Z,1.33
2019-03-17T18:57:41.752Z,1.87
2019-03-17T19:01:45.802Z,2.30
2019-03-17T19:05:49.976Z,1.87
2019-03-17T19:09:53.980Z,1.30
2019-03-17T19:13:59.200Z,1.33
2019-03-17T19:18:03.384Z,2.33
2019-03-17T19:22:07.339Z,2.30
2019-03-17T19:26:11.572Z,1.10
2019-03-17T19:30:16.276Z,1.13
2019-03-17T19:34:20.455Z,0.80
2019-03-17T19:38:24.359Z,0.70
2019-03-17T19:42:28.481Z,0.90
2019-03-17T19:46:32.746Z,0.70
2019-03-17T19:50:40.494Z,0.67
2019-03-17T19:54:44.518Z,0.60
2019-03-17T19:58:48.516Z,0.60
2019-03-17T20:02:52.618Z,0.60
2019-03-17T20:06:56.838Z,0.90
2019-03-17T20:11:00.835Z,0.90
2019-03-17T20:15:04.995Z,0.97
2019-03-17T20:19:09.257Z,1.60
2019-03-17T20:23:13.359Z,1.00
2019-03-17T20:27:17.443Z,0.90
2019-03-17T20:31:21.498Z,0.80
2019-03-17T20:35:25.674Z,0.90
2019-03-17T20:39:29.807Z,0.83
2019-03-17T20:43:35.236Z,0.70
2019-03-17T20:47:39.572Z,0.80
2019-03-17T20:51:43.811Z,0.70
2019-03-17T20:55:47.807Z,0.73
2019-03-17T20:59:51.788Z,0.73
2019-03-17T21:03:55.794Z,0.80
2019-03-17T21:08:00.000Z,0.90
2019-03-17T21:12:03.951Z,0.90
2019-03-17T21:16:07.853Z,0.70
2019-03-17T21:20:12.512Z,0.97
2019-03-17T21:24:16.482Z,2.90
2019-03-17T21:28:20.572Z,1.90
2019-03-17T21:32:24.593Z,1.13
2019-03-17T21:36:28.629Z,1.00
2019-03-17T21:40:32.788Z,0.90
2019-03-17T21:44:36.797Z,0.97
2019-03-17T21:48:40.851Z,1.10
2019-03-17T21:52:44.857Z,1.07
2019-03-17T21:56:48.920Z,1.10
2019-03-17T22:00:53.148Z,1.40
2019-03-17T22:04:57.164Z,1.53
2019-03-17T22:09:01.236Z,1.90
2019-03-17T22:13:06.900Z,1.47
2019-03-17T22:17:10.940Z,1.40
2019-03-17T22:21:14.972Z,1.13
2019-03-17T22:25:19.074Z,1.03
2019-03-17T22:29:23.086Z,1.20
2019-03-17T22:33:27.184Z,1.30
2019-03-17T22:37:31.225Z,1.10
2019-03-17T22:41:35.220Z,1.20
2019-03-17T22:45:39.177Z,1.20
2019-03-17T22:49:43.200Z,1.10
2019-03-17T22:53:47.452Z,1.17
2019-03-17T22:57:51.432Z,1.30
2019-03-17T23:01:55.535Z,1.03
2019-03-17T23:05:59.553Z,1.00
2019-03-17T23:10:03.995Z,1.10
2019-03-17T23:14:08.053Z,1.20
2019-03-17T23:18:12.084Z,1.20
2019-03-17T23:22:16.142Z,1.10
2019-03-17T23:26:20.314Z,1.10
2019-03-17T23:30:24.331Z,1.20
2019-03-17T23:34:28.555Z,0.93
2019-03-17T23:38:32.461Z,0.87
2019-03-17T23:42:36.460Z,1.00
2019-03-17T23:46:42.729Z,1.00
2019-03-17T23:50:46.332Z,0.90
2019-03-17T23:54:50.294Z,0.90
2019-03-17T23:58:54.318Z,0.90
